Time;durP1;ratioP1;P1;durP2;ratioP2;P2;SDS_P1;SDS_P2;PMS_P1;PMS_P2;Temp;Humidity;BMP_temperature;BMP_pressure;BME280_temperature;BME280_humidity;BME280_pressure;Samples;Min_cycle;Max_cycle;Signal;HPM_P1;HPM_P2
2020/12/11 00:00:12;;;;;;;;;;;2.10;99.90;;;;;;5012912;28;20046;-83
2020/12/11 00:02:38;;;;;;;17.10;10.68;;;2.10;99.90;;;;;;5011704;28;19909;-84
2020/12/11 00:05:06;;;;;;;19.73;11.30;;;2.10;99.90;;;;;;5012944;28;20049;-83
2020/12/11 00:07:36;;;;;;;36.20;17.27;;;2.10;99.90;;;;;;4996244;28;20049;-82
2020/12/11 00:10:10;;;;;;;27.88;14.45;;;2.00;99.90;;;;;;5018324;28;20038;-83
2020/12/11 00:12:37;;;;;;;135.13;56.97;;;2.00;99.90;;;;;;5014312;28;20452;-83
2020/12/11 00:15:05;;;;;;;28.33;16.90;;;2.00;99.90;;;;;;5013671;28;20037;-83
2020/12/11 00:17:31;;;;;;;25.10;14.10;;;2.00;99.90;;;;;;4994780;28;20049;-81
2020/12/11 00:19:57;;;;;;;34.08;18.77;;;1.90;99.90;;;;;;4994289;28;20054;-83
2020/12/11 00:22:24;;;;;;;17.38;12.73;;;2.00;99.90;;;;;;5010182;28;20048;-83
2020/12/11 00:24:50;;;;;;;17.58;11.88;;;1.90;99.90;;;;;;5011546;28;20486;-83
2020/12/11 00:27:17;;;;;;;18.05;10.85;;;1.90;99.90;;;;;;5012350;28;20030;-83
2020/12/11 00:29:44;;;;;;;14.43;9.85;;;1.90;99.90;;;;;;4994683;28;20053;-83
2020/12/11 00:32:10;;;;;;;14.80;10.13;;;1.90;99.90;;;;;;4995277;28;20038;-84
2020/12/11 00:34:37;;;;;;;17.17;11.60;;;1.80;99.90;;;;;;4993650;28;20041;-83
2020/12/11 00:37:04;;;;;;;16.98;10.80;;;1.80;99.90;;;;;;5012004;28;20033;-83
2020/12/11 00:39:31;;;;;;;17.23;10.93;;;1.80;99.90;;;;;;5011393;28;20053;-81
2020/12/11 00:41:57;;;;;;;17.20;10.70;;;1.80;99.90;;;;;;5011767;28;20403;-83
2020/12/11 00:44:23;;;;;;;15.70;10.75;;;1.80;99.90;;;;;;5011664;28;20049;-83
2020/12/11 00:46:50;;;;;;;14.35;9.77;;;1.70;99.90;;;;;;5011452;28;20075;-83
2020/12/11 00:49:17;;;;;;;13.88;9.38;;;1.70;99.90;;;;;;4994371;28;20050;-83
2020/12/11 00:51:43;;;;;;;16.13;11.23;;;1.70;99.90;;;;;;4994797;28;20042;-81
2020/12/11 00:54:10;;;;;;;12.98;9.57;;;1.70;99.90;;;;;;4997234;28;20415;-83
2020/12/11 00:56:36;;;;;;;14.65;10.65;;;1.70;99.90;;;;;;4993628;28;20475;-82
2020/12/11 00:59:02;;;;;;;16.63;10.80;;;1.70;99.90;;;;;;5011820;28;20059;-83
2020/12/11 01:01:29;;;;;;;14.85;10.10;;;1.70;99.90;;;;;;5011832;28;20640;-81
2020/12/11 01:03:55;;;;;;;17.77;10.88;;;1.60;99.90;;;;;;5011845;28;20038;-83
2020/12/11 01:06:21;;;;;;;15.45;10.45;;;1.50;99.90;;;;;;5014390;28;20061;-82
2020/12/11 01:08:48;;;;;;;15.55;11.07;;;1.50;99.90;;;;;;4997631;28;20402;-82
2020/12/11 01:11:14;;;;;;;14.77;11.05;;;1.40;99.90;;;;;;5015768;28;20371;-83
2020/12/11 01:13:40;;;;;;;16.73;10.60;;;1.40;99.90;;;;;;5008105;28;20040;-83
2020/12/11 01:16:06;;;;;;;17.20;11.23;;;1.40;99.90;;;;;;5015812;28;20451;-83
2020/12/11 01:18:33;;;;;;;14.63;9.88;;;1.40;99.90;;;;;;4997441;28;20053;-82
2020/12/11 01:20:59;;;;;;;16.42;11.18;;;1.40;99.90;;;;;;4998009;28;20215;-83
2020/12/11 01:23:25;;;;;;;14.50;10.27;;;1.40;99.90;;;;;;5016284;28;20037;-83
2020/12/11 01:25:51;;;;;;;16.83;10.45;;;1.50;99.90;;;;;;5014229;28;20030;-83
2020/12/11 01:28:18;;;;;;;17.80;11.35;;;1.50;99.90;;;;;;5014893;28;20041;-83
2020/12/11 01:30:44;;;;;;;14.38;9.85;;;1.50;99.90;;;;;;5014543;28;20030;-83
2020/12/11 01:33:10;;;;;;;14.07;10.27;;;1.50;99.90;;;;;;4982689;28;20046;-83
2020/12/11 01:35:37;;;;;;;16.48;9.95;;;1.60;99.90;;;;;;4996970;28;20041;-83
2020/12/11 01:38:03;;;;;;;13.90;9.38;;;1.60;99.90;;;;;;5007711;28;20049;-83
2020/12/11 01:40:36;;;;;;;13.75;9.52;;;1.60;99.90;;;;;;5015173;28;20042;-83
2020/12/11 01:43:02;;;;;;;12.15;9.75;;;1.70;99.90;;;;;;5015159;28;20482;-83
2020/12/11 01:45:29;;;;;;;13.35;9.82;;;1.60;99.90;;;;;;5015511;28;20052;-83
2020/12/11 01:47:57;;;;;;;14.70;9.90;;;1.60;99.90;;;;;;5014377;28;20026;-83
2020/12/11 01:50:23;;;;;;;15.40;10.07;;;1.60;99.90;;;;;;5014869;28;20029;-83
2020/12/11 01:52:51;;;;;;;14.05;9.63;;;1.50;99.90;;;;;;4997251;28;20577;-84
2020/12/11 01:55:17;;;;;;;12.70;9.32;;;1.50;99.90;;;;;;5014863;28;20075;-84
2020/12/11 01:57:58;;;;;;;15.95;9.68;;;1.50;99.90;;;;;;5016806;28;20036;-83
2020/12/11 02:00:26;;;;;;;13.68;9.50;;;1.40;99.90;;;;;;5020051;28;20053;-84
2020/12/11 02:03:05;;;;;;;13.40;9.80;;;1.40;99.90;;;;;;4997942;28;20030;-83
2020/12/11 02:05:32;;;;;;;15.85;10.73;;;1.40;99.90;;;;;;5014527;28;20038;-82
2020/12/11 02:07:58;;;;;;;14.48;10.15;;;1.40;99.90;;;;;;5015386;28;20028;-83
2020/12/11 02:10:25;;;;;;;14.77;9.55;;;1.40;99.90;;;;;;4997382;28;20057;-84
2020/12/11 02:12:52;;;;;;;14.88;9.80;;;1.40;99.90;;;;;;5014212;28;20199;-83
2020/12/11 02:15:18;;;;;;;17.02;9.40;;;1.40;99.90;;;;;;5013941;28;20046;-83
2020/12/11 02:17:44;;;;;;;13.70;9.38;;;1.40;99.90;;;;;;5013995;28;20037;-83
2020/12/11 02:20:10;;;;;;;13.43;9.15;;;1.40;99.90;;;;;;5014223;28;20042;-83
2020/12/11 02:22:37;;;;;;;15.65;10.18;;;1.30;99.90;;;;;;5013741;28;20037;-83
2020/12/11 02:25:03;;;;;;;14.43;9.82;;;1.20;99.90;;;;;;5014605;28;20030;-84
2020/12/11 02:27:29;;;;;;;16.27;10.27;;;1.20;99.90;;;;;;5013701;28;20037;-82
2020/12/11 02:29:56;;;;;;;16.38;9.75;;;1.10;99.90;;;;;;4996510;28;20042;-84
2020/12/11 02:32:22;;;;;;;17.40;11.15;;;1.10;99.90;;;;;;5013263;28;20050;-85
2020/12/11 02:34:48;;;;;;;15.02;9.93;;;1.00;99.90;;;;;;5009150;28;20048;-84
2020/12/11 02:37:15;;;;;;;16.65;10.00;;;1.10;99.90;;;;;;5015030;28;20030;-84
2020/12/11 02:39:41;;;;;;;16.05;10.55;;;1.00;99.90;;;;;;5014122;28;20061;-83
2020/12/11 02:42:08;;;;;;;15.93;10.07;;;1.10;99.90;;;;;;5030881;28;20048;-84
2020/12/11 02:44:35;;;;;;;16.15;10.20;;;1.10;99.90;;;;;;5013272;28;20541;-84
2020/12/11 02:47:02;;;;;;;16.45;10.55;;;1.10;99.90;;;;;;5013393;28;20042;-84
2020/12/11 02:49:28;;;;;;;20.17;11.68;;;1.10;99.90;;;;;;5013924;28;20041;-84
2020/12/11 02:51:54;;;;;;;19.40;12.38;;;1.10;99.90;;;;;;5013678;28;20475;-85
2020/12/11 02:54:21;;;;;;;19.98;11.90;;;1.20;99.90;;;;;;5013272;28;20046;-85
2020/12/11 02:56:47;;;;;;;18.75;12.18;;;1.20;99.90;;;;;;4996090;28;20038;-85
2020/12/11 02:59:13;;;;;;;20.65;11.65;;;1.30;99.90;;;;;;5021441;28;20038;-84
2020/12/11 03:01:39;;;;;;;22.85;12.82;;;1.20;99.90;;;;;;5034421;28;20052;-82
2020/12/11 03:04:06;;;;;;;22.45;13.27;;;1.30;99.90;;;;;;5025569;28;20037;-86
2020/12/11 03:06:32;;;;;;;24.50;14.30;;;1.40;99.90;;;;;;5012726;28;20037;-83
2020/12/11 03:08:59;;;;;;;22.77;13.57;;;1.30;99.90;;;;;;5013358;28;20022;-86
2020/12/11 03:11:25;;;;;;;21.77;13.50;;;1.40;99.90;;;;;;4998143;28;20399;-85
2020/12/11 03:13:52;;;;;;;23.63;12.50;;;1.40;99.90;;;;;;5013052;28;20041;-85
2020/12/11 03:16:19;;;;;;;23.95;13.18;;;1.50;99.90;;;;;;5013129;28;20033;-85
2020/12/11 03:18:47;;;;;;;23.80;13.77;;;1.50;99.90;;;;;;4996392;28;20046;-84
2020/12/11 03:21:14;;;;;;;24.08;13.32;;;1.50;99.90;;;;;;5002791;28;20030;-84
2020/12/11 03:23:40;;;;;;;22.58;12.95;;;1.50;99.90;;;;;;5000733;28;20041;-85
2020/12/11 03:26:06;;;;;;;25.10;14.00;;;1.50;99.90;;;;;;5017532;28;20022;-84
2020/12/11 03:28:34;;;;;;;21.63;13.10;;;1.50;99.90;;;;;;5003931;28;20046;-82
2020/12/11 03:31:01;;;;;;;22.88;13.02;;;1.50;99.90;;;;;;5000799;28;20042;-84
2020/12/11 03:33:27;;;;;;;20.58;12.15;;;1.50;99.90;;;;;;4998165;28;20022;-84
2020/12/11 03:35:54;;;;;;;24.60;13.70;;;1.50;99.90;;;;;;5015747;28;20637;-84
2020/12/11 03:38:21;;;;;;;23.00;13.27;;;1.50;99.90;;;;;;5000769;28;20030;-84
2020/12/11 03:40:48;;;;;;;20.77;12.25;;;1.50;99.90;;;;;;4999710;28;20056;-85
2020/12/11 03:43:15;;;;;;;19.90;12.40;;;1.50;99.90;;;;;;5016227;28;20033;-84
2020/12/11 03:45:41;;;;;;;19.30;12.40;;;1.50;99.90;;;;;;5018418;28;20040;-84
2020/12/11 03:48:07;;;;;;;22.67;13.32;;;1.40;99.90;;;;;;5004939;28;20048;-84
2020/12/11 03:50:33;;;;;;;21.95;13.15;;;1.40;99.90;;;;;;5018182;28;20045;-82
2020/12/11 03:53:00;;;;;;;23.58;13.48;;;1.40;99.90;;;;;;5017908;28;20037;-84
2020/12/11 03:55:26;;;;;;;22.30;14.13;;;1.40;99.90;;;;;;5014518;28;20041;-85
2020/12/11 03:57:52;;;;;;;22.50;13.80;;;1.40;99.90;;;;;;4996910;28;20598;-85
2020/12/11 04:00:18;;;;;;;24.55;13.98;;;1.40;99.90;;;;;;4995962;28;20056;-85
2020/12/11 04:02:44;;;;;;;22.33;15.60;;;1.30;99.90;;;;;;5012801;28;20038;-84
2020/12/11 04:05:11;;;;;;;23.50;13.55;;;1.40;99.90;;;;;;4995868;28;20049;-85
2020/12/11 04:07:37;;;;;;;24.40;14.45;;;1.40;99.90;;;;;;5012224;28;20033;-84
2020/12/11 04:10:03;;;;;;;25.77;14.95;;;1.40;99.90;;;;;;4995670;28;20045;-84
2020/12/11 04:12:29;;;;;;;24.50;14.52;;;1.30;99.90;;;;;;5013568;28;20391;-85
2020/12/11 04:14:55;;;;;;;25.20;14.65;;;1.40;99.90;;;;;;4995404;28;20483;-84
2020/12/11 04:17:22;;;;;;;23.15;13.70;;;1.40;99.90;;;;;;5013590;28;20049;-85
2020/12/11 04:19:48;;;;;;;23.52;13.57;;;1.30;99.90;;;;;;4998086;28;20045;-85
2020/12/11 04:22:14;;;;;;;37.55;20.65;;;1.20;99.90;;;;;;5013851;28;20037;-85
2020/12/11 04:24:41;;;;;;;71.72;36.08;;;1.10;99.90;;;;;;5013366;28;20030;-85
2020/12/11 04:27:07;;;;;;;27.27;17.00;;;1.10;99.90;;;;;;5013808;28;20034;-84
2020/12/11 04:29:33;;;;;;;377.73;165.27;;;1.10;99.90;;;;;;4996574;28;20034;-82
2020/12/11 04:31:59;;;;;;;134.90;66.18;;;1.10;99.90;;;;;;5013796;28;20041;-84
2020/12/11 04:34:26;;;;;;;42.40;23.92;;;1.00;99.90;;;;;;5013618;28;20360;-84
2020/12/11 04:36:56;;;;;;;148.18;74.50;;;0.90;99.90;;;;;;5013309;28;20030;-84
2020/12/11 04:39:23;;;;;;;212.43;89.07;;;0.90;99.90;;;;;;5013314;28;20034;-85
2020/12/11 04:41:53;;;;;;;94.18;41.78;;;0.90;99.90;;;;;;5016190;28;20123;-84
2020/12/11 04:44:20;;;;;;;34.20;20.07;;;0.80;99.90;;;;;;5017266;28;20034;-84
2020/12/11 04:46:47;;;;;;;158.60;75.68;;;0.80;99.90;;;;;;5016621;28;20042;-84
2020/12/11 04:49:13;;;;;;;56.50;31.77;;;0.70;99.90;;;;;;5016861;28;20037;-84
2020/12/11 04:51:47;;;;;;;104.03;48.85;;;0.60;99.90;;;;;;5016350;28;20034;-84
2020/12/11 04:54:18;;;;;;;202.52;95.05;;;0.50;99.90;;;;;;5017202;28;20046;-83
2020/12/11 04:56:47;;;;;;;252.90;101.00;;;0.40;99.90;;;;;;5017006;28;20379;-83
2020/12/11 04:59:14;;;;;;;494.65;236.43;;;0.40;99.90;;;;;;5016314;28;20054;-83
2020/12/11 05:01:42;;;;;;;235.23;100.53;;;0.40;99.90;;;;;;5016405;28;20475;-83
2020/12/11 05:04:08;;;;;;;68.28;36.30;;;0.40;99.90;;;;;;4998435;28;20042;-84
2020/12/11 05:06:34;;;;;;;51.67;27.13;;;0.40;99.90;;;;;;5016554;28;20463;-81
2020/12/11 05:09:18;;;;;;;125.03;57.63;;;0.40;99.90;;;;;;5000715;28;20041;-83
2020/12/11 05:11:45;;;;;;;102.82;50.53;;;0.40;99.90;;;;;;5016529;28;20459;-84
2020/12/11 05:14:26;;;;;;;117.18;57.78;;;0.40;99.90;;;;;;5017531;28;20030;-83
2020/12/11 05:17:01;;;;;;;56.13;31.37;;;0.50;99.90;;;;;;5018135;28;20017;-83
2020/12/11 05:19:32;;;;;;;91.03;42.90;;;0.50;99.90;;;;;;5014950;28;20301;-83
2020/12/11 05:22:19;;;;;;;90.55;41.83;;;0.50;99.90;;;;;;4985149;28;20046;-85
2020/12/11 05:24:48;;;;;;;121.57;63.20;;;0.50;99.90;;;;;;5000144;28;20038;-83
2020/12/11 05:27:47;;;;;;;61.60;33.80;;;0.50;99.90;;;;;;5016102;28;20034;-83
2020/12/11 05:30:16;;;;;;;73.22;36.83;;;0.60;99.90;;;;;;4994569;28;20505;-82
2020/12/11 05:32:56;;;;;;;131.52;67.88;;;0.60;99.90;;;;;;4999115;28;20037;-84
2020/12/11 05:35:30;;;;;;;74.63;41.53;;;0.60;99.90;;;;;;5021419;28;20041;-82
2020/12/11 05:38:07;;;;;;;33.10;20.23;;;0.70;99.90;;;;;;5037605;28;20036;-84
2020/12/11 05:40:34;;;;;;;58.30;30.65;;;0.80;99.90;;;;;;5021097;28;20056;-82
2020/12/11 05:43:06;;;;;;;44.28;22.60;;;0.80;99.90;;;;;;5015132;28;20037;-83
2020/12/11 05:45:36;;;;;;;40.92;22.65;;;0.80;99.90;;;;;;5017308;28;20479;-82
2020/12/11 05:48:03;;;;;;;31.30;16.77;;;0.80;99.90;;;;;;5013239;28;20030;-84
2020/12/11 05:50:30;;;;;;;28.42;17.52;;;0.90;99.90;;;;;;5016527;28;20053;-83
2020/12/11 05:52:56;;;;;;;38.28;22.00;;;0.90;99.90;;;;;;5034699;28;20029;-83
2020/12/11 05:55:23;;;;;;;38.08;20.23;;;0.90;99.90;;;;;;5035990;28;20482;-83
2020/12/11 05:57:53;;;;;;;35.45;19.40;;;0.90;99.90;;;;;;5016739;28;20037;-85
2020/12/11 06:00:20;;;;;;;49.55;26.65;;;1.00;99.90;;;;;;5017158;28;20510;-84
2020/12/11 06:02:51;;;;;;;44.60;23.95;;;1.10;99.90;;;;;;5016748;28;20479;-84
2020/12/11 06:05:19;;;;;;;98.55;44.90;;;1.10;99.90;;;;;;5018536;28;20040;-85
2020/12/11 06:07:47;;;;;;;114.90;53.80;;;1.10;99.90;;;;;;5014605;28;20030;-75
2020/12/11 06:10:15;;;;;;;156.90;73.82;;;1.10;99.90;;;;;;5014993;28;20042;-79
2020/12/11 06:12:42;;;;;;;59.28;30.20;;;1.10;99.90;;;;;;4997164;28;20045;-78
2020/12/11 06:15:17;;;;;;;27.60;16.23;;;1.20;99.90;;;;;;5015679;28;20034;-79
2020/12/11 06:17:57;;;;;;;52.58;27.83;;;1.20;99.90;;;;;;5014766;28;20033;-79
2020/12/11 06:20:25;;;;;;;29.90;18.92;;;1.20;99.90;;;;;;5004880;28;20072;-79
2020/12/11 06:22:51;;;;;;;32.15;16.52;;;1.10;99.90;;;;;;5013961;28;20034;-78
2020/12/11 06:25:24;;;;;;;29.70;15.65;;;1.10;99.90;;;;;;4997632;28;20121;-79
2020/12/11 06:27:51;;;;;;;26.50;14.95;;;1.10;99.90;;;;;;5014454;28;20029;-79
2020/12/11 06:30:37;;;;;;;26.13;15.25;;;1.10;99.90;;;;;;4995139;28;20046;-78
2020/12/11 06:33:03;;;;;;;28.05;15.75;;;1.10;99.90;;;;;;5014756;28;20033;-78
2020/12/11 06:35:29;;;;;;;30.13;17.23;;;1.10;99.90;;;;;;4997562;28;20029;-78
2020/12/11 06:37:55;;;;;;;25.13;14.93;;;1.10;99.90;;;;;;5014106;28;20604;-78
2020/12/11 06:40:50;;;;;;;25.00;16.20;;;1.10;99.90;;;;;;4997336;28;20048;-79
2020/12/11 06:43:38;;;;;;;31.30;18.15;;;1.00;99.90;;;;;;5024263;28;20038;-78
2020/12/11 06:46:13;;;;;;;25.90;15.35;;;0.90;99.90;;;;;;5017562;28;20037;-78
2020/12/11 06:49:08;;;;;;;39.25;20.92;;;0.90;99.90;;;;;;5010367;28;20034;-78
2020/12/11 06:51:47;;;;;;;65.95;34.10;;;0.90;99.90;;;;;;5014179;28;20045;-81
2020/12/11 06:54:33;;;;;;;123.65;61.90;;;0.80;99.90;;;;;;5014389;28;20399;-79
2020/12/11 06:57:00;;;;;;;31.75;18.40;;;0.70;99.90;;;;;;4997192;28;20505;-78
2020/12/11 06:59:33;;;;;;;29.90;17.65;;;0.80;99.90;;;;;;5014386;28;20398;-80
2020/12/11 07:02:03;;;;;;;38.83;22.27;;;0.80;99.90;;;;;;4997143;28;20479;-80
2020/12/11 07:04:48;;;;;;;33.53;18.58;;;0.90;99.90;;;;;;5013764;28;20033;-79
2020/12/11 07:07:14;;;;;;;25.73;14.82;;;0.90;99.90;;;;;;5012464;28;20490;-80
2020/12/11 07:09:45;;;;;;;58.90;31.05;;;0.90;99.90;;;;;;5014211;28;20033;-80
2020/12/11 07:12:15;;;;;;;31.95;18.98;;;1.00;99.90;;;;;;5012568;28;20498;-80
2020/12/11 07:14:45;;;;;;;47.70;27.77;;;1.00;99.90;;;;;;5020266;28;20462;-83
2020/12/11 07:17:32;;;;;;;102.03;47.30;;;1.10;99.90;;;;;;5005640;28;20034;-82
2020/12/11 07:19:59;;;;;;;38.70;22.42;;;1.10;99.90;;;;;;5027129;28;20060;-82
2020/12/11 07:22:25;;;;;;;30.23;17.83;;;1.20;99.90;;;;;;5011089;28;20042;-79
2020/12/11 07:24:51;;;;;;;28.58;15.55;;;1.20;99.90;;;;;;5017756;28;20037;-80
2020/12/11 07:27:18;;;;;;;29.65;17.52;;;1.20;99.90;;;;;;5016668;28;20030;-80
2020/12/11 07:29:53;;;;;;;28.15;17.55;;;1.20;99.90;;;;;;5014875;28;20037;-80
2020/12/11 07:32:20;;;;;;;33.78;20.27;;;1.30;99.90;;;;;;5015111;28;20033;-81
2020/12/11 07:34:47;;;;;;;26.85;16.33;;;1.40;99.90;;;;;;5020690;28;20021;-80
2020/12/11 07:37:15;;;;;;;23.15;15.82;;;1.40;99.90;;;;;;5025048;28;20041;-80
2020/12/11 07:39:41;;;;;;;86.32;42.33;;;1.50;99.90;;;;;;5013807;28;20025;-80
2020/12/11 07:42:09;;;;;;;155.55;71.78;;;1.50;99.90;;;;;;5014440;28;20471;-79
2020/12/11 07:44:37;;;;;;;84.93;40.42;;;1.50;99.90;;;;;;4996159;28;20045;-80
2020/12/11 07:47:09;;;;;;;34.33;19.92;;;1.60;99.90;;;;;;5014308;28;20355;-80
2020/12/11 07:49:36;;;;;;;75.03;38.28;;;1.70;99.90;;;;;;5013930;28;20038;-80
2020/12/11 07:52:03;;;;;;;31.63;19.95;;;1.80;99.90;;;;;;5013738;28;20045;-79
2020/12/11 07:54:40;;;;;;;28.17;17.50;;;1.80;99.90;;;;;;4996703;28;20050;-79
2020/12/11 07:57:20;;;;;;;38.67;23.13;;;1.90;99.90;;;;;;5014382;28;20036;-80
2020/12/11 07:59:59;;;;;;;33.92;19.48;;;1.90;99.90;;;;;;5013902;28;20037;-80
2020/12/11 08:02:27;;;;;;;28.95;17.30;;;2.00;99.90;;;;;;5014060;28;20041;-80
2020/12/11 08:04:53;;;;;;;38.70;21.23;;;2.10;99.90;;;;;;5013281;28;20029;-80
2020/12/11 08:07:23;;;;;;;27.77;17.98;;;2.10;99.90;;;;;;5014254;28;20037;-80
2020/12/11 08:09:50;;;;;;;34.47;18.92;;;2.20;99.90;;;;;;5013239;28;20045;-80
2020/12/11 08:12:16;;;;;;;29.05;17.90;;;2.20;99.90;;;;;;5016091;28;20108;-80
2020/12/11 08:14:43;;;;;;;30.73;20.33;;;2.20;99.90;;;;;;5031365;28;20037;-80
2020/12/11 08:17:12;;;;;;;32.60;18.85;;;2.20;99.90;;;;;;5014188;28;20037;-81
2020/12/11 08:19:40;;;;;;;27.40;16.83;;;2.30;99.90;;;;;;5013514;28;20375;-81
2020/12/11 08:22:32;;;;;;;35.63;18.73;;;2.30;99.90;;;;;;5013528;28;20038;-80
2020/12/11 08:24:59;;;;;;;42.67;22.58;;;2.40;99.90;;;;;;5013282;28;20049;-80
2020/12/11 08:27:29;;;;;;;28.33;16.75;;;2.50;99.90;;;;;;5015654;28;20029;-80
2020/12/11 08:30:14;;;;;;;28.33;16.85;;;2.40;99.90;;;;;;5013625;28;20030;-80
2020/12/11 08:32:41;;;;;;;24.52;14.82;;;2.50;99.90;;;;;;5026400;28;20037;-77
2020/12/11 08:35:18;;;;;;;29.27;16.23;;;2.50;99.90;;;;;;5013327;28;20471;-79
2020/12/11 08:37:55;;;;;;;24.90;14.57;;;2.50;99.90;;;;;;5011555;28;20040;-80
2020/12/11 08:40:23;;;;;;;52.00;27.40;;;2.50;99.90;;;;;;5013455;28;20410;-80
2020/12/11 08:43:31;;;;;;;26.65;16.65;;;2.50;99.90;;;;;;5013028;28;20042;-80
2020/12/11 08:51:04;;;;;;;53.83;27.20;;;2.60;99.90;;;;;;5012084;28;20048;-80
2020/12/11 08:53:36;;;;;;;25.75;15.07;;;2.80;99.90;;;;;;5020277;28;20371;-80
2020/12/11 08:56:07;;;;;;;23.40;14.63;;;2.80;99.90;;;;;;5021285;28;20030;-80
2020/12/11 08:58:34;;;;;;;26.90;16.48;;;2.90;99.90;;;;;;5017036;28;20041;-80
2020/12/11 09:01:00;;;;;;;20.15;13.32;;;3.00;99.90;;;;;;5010314;28;20391;-80
2020/12/11 09:03:26;;;;;;;27.50;15.90;;;3.10;99.90;;;;;;5011897;28;20030;-79
2020/12/11 09:05:53;;;;;;;23.20;13.52;;;3.10;99.90;;;;;;5011644;28;20034;-80
2020/12/11 09:08:19;;;;;;;20.10;13.02;;;3.30;99.90;;;;;;5012261;28;20506;-81
2020/12/11 09:10:45;;;;;;;24.70;13.45;;;3.40;99.90;;;;;;5012418;28;20030;-81
2020/12/11 09:13:12;;;;;;;23.77;14.00;;;3.60;99.90;;;;;;4998611;28;20029;-80
2020/12/11 09:15:38;;;;;;;23.00;13.52;;;3.80;99.90;;;;;;5015211;28;20037;-80
2020/12/11 09:18:04;;;;;;;22.40;13.88;;;4.10;99.90;;;;;;5013509;28;20025;-81
2020/12/11 09:20:31;;;;;;;22.95;12.80;;;4.30;99.90;;;;;;5012618;28;20041;-81
2020/12/11 09:22:58;;;;;;;19.83;12.70;;;4.40;99.90;;;;;;5011741;28;20033;-78
2020/12/11 09:25:24;;;;;;;20.33;13.25;;;4.40;99.90;;;;;;5011787;28;20034;-80
2020/12/11 09:27:51;;;;;;;25.00;14.15;;;4.40;99.90;;;;;;4997499;28;20395;-78
2020/12/11 09:35:31;;;;;;;20.85;13.77;;;4.40;99.90;;;;;;5039136;28;20041;-80
2020/12/11 09:37:58;;;;;;;21.00;13.65;;;4.40;99.90;;;;;;5030999;28;20030;-79
2020/12/11 09:40:51;;;;;;;22.70;13.52;;;4.40;99.90;;;;;;5037530;28;20036;-81
2020/12/11 09:48:51;;;;;;;23.30;13.15;;;4.80;99.90;;;;;;5039514;28;20040;-80
2020/12/11 09:54:10;;;;;;;21.02;12.77;;;4.50;99.90;;;;;;5037887;28;20049;-81
2020/12/11 09:56:37;;;;;;;22.35;13.85;;;4.60;99.90;;;;;;5020399;28;20030;-80
2020/12/11 09:59:08;;;;;;;20.10;13.68;;;4.50;99.90;;;;;;5019382;28;20042;-81
2020/12/11 10:01:53;;;;;;;24.42;14.40;;;4.50;99.90;;;;;;5040513;28;20465;-81
2020/12/11 10:04:19;;;;;;;21.42;13.40;;;4.50;99.90;;;;;;5030145;28;20517;-81
2020/12/11 10:06:45;;;;;;;23.48;14.38;;;4.50;99.90;;;;;;5016063;28;20037;-81
2020/12/11 10:09:12;;;;;;;28.45;14.32;;;4.50;99.90;;;;;;5036867;28;20040;-81
2020/12/11 10:11:38;;;;;;;22.40;13.73;;;4.60;99.90;;;;;;5014254;28;20034;-80
2020/12/11 10:14:21;;;;;;;21.52;13.00;;;4.60;99.90;;;;;;5018733;28;20021;-82
2020/12/11 10:16:51;;;;;;;23.08;13.63;;;4.50;99.90;;;;;;5020465;28;20041;-81
2020/12/11 10:19:19;;;;;;;;;;;4.70;99.90;;;;;;5015549;28;20049;-79
2020/12/11 10:21:49;;;;;;;21.73;13.57;;;4.80;99.90;;;;;;5013591;28;19914;-80
2020/12/11 10:24:16;;;;;;;15.55;8.82;;;4.60;99.90;;;;;;5023580;28;20045;-82
2020/12/11 10:26:43;;;;;;;21.10;12.90;;;4.40;99.90;;;;;;5013463;28;20049;-82
2020/12/11 10:29:09;;;;;;;21.70;13.43;;;4.30;99.90;;;;;;5013986;28;20034;-82
2020/12/11 10:31:36;;;;;;;18.20;11.32;;;4.30;99.90;;;;;;5014288;28;20034;-82
2020/12/11 10:34:02;;;;;;;20.17;12.43;;;4.40;99.90;;;;;;5013497;28;20037;-82
2020/12/11 10:36:32;;;;;;;19.98;12.27;;;4.40;99.90;;;;;;5013709;28;20034;-82
2020/12/11 10:38:58;;;;;;;22.45;13.35;;;4.30;99.90;;;;;;5012411;28;20034;-81
2020/12/11 10:41:25;;;;;;;19.58;12.50;;;4.30;99.90;;;;;;5013634;28;20042;-82
2020/12/11 10:43:52;;;;;;;20.52;12.48;;;4.30;99.90;;;;;;5013431;28;20033;-82
2020/12/11 10:46:19;;;;;;;20.33;13.02;;;4.40;99.90;;;;;;5015485;28;20045;-80
2020/12/11 10:48:46;;;;;;;23.90;13.50;;;4.50;99.90;;;;;;5027826;28;20030;-80
2020/12/11 10:51:19;;;;;;;19.25;11.38;;;4.60;99.90;;;;;;5013295;28;20056;-82
2020/12/11 10:53:46;;;;;;;23.05;13.70;;;4.50;99.90;;;;;;5013126;28;20049;-82
2020/12/11 10:56:14;;;;;;;22.05;12.13;;;4.60;99.90;;;;;;5013380;28;20034;-82
2020/12/11 10:58:41;;;;;;;23.08;11.85;;;4.60;99.90;;;;;;5013301;28;20517;-82
2020/12/11 11:01:11;;;;;;;19.10;12.43;;;4.70;99.90;;;;;;5013970;28;20045;-83
2020/12/11 11:03:38;;;;;;;20.38;11.88;;;4.80;99.90;;;;;;5021100;28;20034;-81
2020/12/11 11:06:31;;;;;;;19.65;12.48;;;4.70;99.90;;;;;;4998551;28;20046;-82
2020/12/11 11:09:46;;;;;;;19.10;12.30;;;4.60;99.90;;;;;;5013931;28;20659;-82
2020/12/11 11:11:50;;;;;;;20.50;12.70;;;4.80;99.90;;;;;;5002716;28;20049;-81
2020/12/11 11:19:40;;;;;;;22.88;12.82;;;5.10;99.90;;;;;;5013550;28;20048;-82
2020/12/11 11:30:05;;;;;;;22.40;12.90;;;4.90;99.90;;;;;;5013140;28;20051;-82
2020/12/11 11:32:32;;;;;;;26.83;15.73;;;4.80;99.90;;;;;;5012921;28;20502;-82
2020/12/11 11:34:58;;;;;;;23.80;13.57;;;4.90;99.90;;;;;;5012826;28;20026;-81
2020/12/11 11:37:28;;;;;;;152.13;64.93;;;4.90;99.90;;;;;;5013462;28;20383;-82
2020/12/11 11:39:55;;;;;;;84.93;40.77;;;5.00;99.90;;;;;;5012297;28;20030;-82
2020/12/11 11:42:21;;;;;;;421.08;171.27;;;5.00;99.90;;;;;;5003223;28;20044;-82
2020/12/11 11:44:57;;;;;;;120.32;56.50;;;5.10;99.90;;;;;;5012490;28;20490;-82
2020/12/11 11:47:24;;;;;;;23.90;14.00;;;5.20;99.90;;;;;;4996809;28;20042;-82
2020/12/11 11:55:04;;;;;;;149.85;64.93;;;5.20;99.90;;;;;;4994564;28;20041;-82
2020/12/11 11:57:30;;;;;;;35.75;19.13;;;5.30;99.90;;;;;;5012443;28;20364;-82
2020/12/11 11:59:57;;;;;;;30.92;16.38;;;5.40;99.90;;;;;;5012057;28;20387;-82
2020/12/11 12:02:23;;;;;;;62.78;28.75;;;5.50;99.90;;;;;;4995589;28;20034;-82
2020/12/11 12:04:49;;;;;;;42.88;20.80;;;5.70;99.90;;;;;;5012034;28;20040;-82
2020/12/11 12:07:16;;;;;;;29.23;18.20;;;5.80;99.90;;;;;;5011763;28;20053;-83
2020/12/11 12:09:42;;;;;;;55.03;31.48;;;5.70;99.90;;;;;;5011724;28;20048;-82
2020/12/11 12:12:09;;;;;;;56.38;33.72;;;5.60;99.90;;;;;;5012311;28;20399;-82
2020/12/11 12:14:36;;;;;;;19.83;12.77;;;5.60;99.90;;;;;;5012551;28;20034;-82
2020/12/11 12:17:05;;;;;;;27.90;18.92;;;5.60;99.90;;;;;;5012188;28;20041;-82
2020/12/11 12:19:44;;;;;;;18.15;10.95;;;5.60;99.90;;;;;;4994634;28;20073;-82
2020/12/11 12:27:51;;;;;;;26.13;15.45;;;5.90;99.90;;;;;;5047301;28;20033;-82
2020/12/11 12:30:18;;;;;;;16.35;10.57;;;5.90;99.90;;;;;;5029843;28;20038;-83
2020/12/11 12:34:09;;;;;;;19.38;11.75;;;5.90;99.90;;;;;;5009415;28;20045;-83
2020/12/11 12:36:03;;;;;;;15.60;10.38;;;5.90;99.90;;;;;;4995697;28;20046;-82
2020/12/11 12:43:55;;;;;;;16.98;10.25;;;5.60;99.90;;;;;;5011958;28;20034;-82
2020/12/11 12:46:21;;;;;;;16.92;11.27;;;5.60;99.90;;;;;;5012224;28;20376;-82
2020/12/11 12:48:47;;;;;;;16.98;10.70;;;5.60;99.90;;;;;;5012012;28;20037;-82
2020/12/11 12:51:13;;;;;;;19.58;12.07;;;5.50;99.90;;;;;;5014068;28;20042;-82
2020/12/11 12:53:40;;;;;;;20.88;11.95;;;5.50;99.90;;;;;;5015483;28;20052;-79
2020/12/11 12:59:00;;;;;;;18.45;11.68;;;5.40;99.90;;;;;;4995222;28;20048;-83
2020/12/11 13:02:50;;;;;;;21.88;12.65;;;5.30;99.90;;;;;;5013785;28;20052;-82
2020/12/11 13:07:18;;;;;;;19.38;12.30;;;5.30;99.90;;;;;;4999790;28;20356;-82
2020/12/11 13:09:44;;;;;;;21.27;11.77;;;5.30;99.90;;;;;;5015479;28;20041;-82
2020/12/11 13:12:10;;;;;;;21.75;11.95;;;5.30;99.90;;;;;;5015529;28;20034;-82
2020/12/11 13:14:37;;;;;;;21.70;12.38;;;5.20;99.90;;;;;;5013861;28;20029;-82
2020/12/11 13:17:04;;;;;;;21.55;11.68;;;5.20;99.90;;;;;;5015167;28;20034;-83
2020/12/11 13:19:32;;;;;;;21.38;12.10;;;5.30;99.90;;;;;;5016026;28;20045;-82
2020/12/11 13:27:33;;;;;;;17.85;11.10;;;5.30;99.90;;;;;;5016016;28;20038;-82
2020/12/11 13:29:59;;;;;;;22.65;13.30;;;5.30;99.90;;;;;;5014927;28;20029;-81
2020/12/11 13:32:30;;;;;;;21.17;12.15;;;5.30;99.90;;;;;;5015456;28;20037;-82
2020/12/11 13:34:56;;;;;;;20.33;12.53;;;5.30;99.90;;;;;;5014774;28;20022;-82
2020/12/11 13:37:23;;;;;;;23.25;13.63;;;5.30;99.90;;;;;;5015084;28;20296;-83
2020/12/11 13:39:49;;;;;;;25.83;16.10;;;5.30;99.90;;;;;;5015130;28;20042;-82
2020/12/11 13:42:15;;;;;;;20.85;13.10;;;5.20;99.90;;;;;;5014839;28;20388;-79
2020/12/11 13:44:41;;;;;;;17.60;11.60;;;5.20;99.90;;;;;;4996845;28;20037;-78
2020/12/11 13:47:08;;;;;;;20.35;11.48;;;5.20;99.90;;;;;;5014508;28;20386;-78